sensor_id;sensor_type;location;lat;lon;timestamp;P1;durP1;ratioP1;P2;durP2;ratioP2
20065;SDS011;10193;48.884;9.182;2024-01-27T00:00:26;3.08;;;1.10;;
20065;SDS011;10193;48.884;9.182;2024-01-27T00:02:53;1.50;;;1.40;;
20065;SDS011;10193;48.884;9.182;2024-01-27T00:05:21;2.40;;;1.43;;
20065;SDS011;10193;48.884;9.182;2024-01-27T00:07:47;1.75;;;1.40;;
20065;SDS011;10193;48.884;9.182;2024-01-27T00:10:14;1.80;;;1.23;;
20065;SDS011;10193;48.884;9.182;2024-01-27T00:12:41;1.95;;;1.30;;
20065;SDS011;10193;48.884;9.182;2024-01-27T00:15:08;2.20;;;1.30;;
20065;SDS011;10193;48.884;9.182;2024-01-27T00:17:35;2.92;;;1.35;;
20065;SDS011;10193;48.884;9.182;2024-01-27T00:20:01;2.72;;;1.50;;
20065;SDS011;10193;48.884;9.182;2024-01-27T00:22:29;3.13;;;1.58;;
20065;SDS011;10193;48.884;9.182;2024-01-27T00:24:56;2.10;;;1.38;;
20065;SDS011;10193;48.884;9.182;2024-01-27T00:27:23;2.53;;;1.67;;
20065;SDS011;10193;48.884;9.182;2024-01-27T00:29:49;2.13;;;1.50;;
20065;SDS011;10193;48.884;9.182;2024-01-27T00:32:16;2.78;;;1.60;;
20065;SDS011;10193;48.884;9.182;2024-01-27T00:34:43;2.87;;;1.80;;
20065;SDS011;10193;48.884;9.182;2024-01-27T00:37:09;2.33;;;1.92;;
20065;SDS011;10193;48.884;9.182;2024-01-27T00:39:37;1.67;;;1.40;;
20065;SDS011;10193;48.884;9.182;2024-01-27T00:42:04;1.98;;;1.70;;
20065;SDS011;10193;48.884;9.182;2024-01-27T00:44:31;2.07;;;1.77;;
20065;SDS011;10193;48.884;9.182;2024-01-27T00:46:57;3.30;;;1.50;;
20065;SDS011;10193;48.884;9.182;2024-01-27T00:49:24;2.53;;;1.70;;
20065;SDS011;10193;48.884;9.182;2024-01-27T00:51:50;2.92;;;1.90;;
20065;SDS011;10193;48.884;9.182;2024-01-27T00:54:17;3.73;;;1.80;;
20065;SDS011;10193;48.884;9.182;2024-01-27T00:56:45;3.17;;;1.73;;
20065;SDS011;10193;48.884;9.182;2024-01-27T00:59:12;2.60;;;1.63;;
20065;SDS011;10193;48.884;9.182;2024-01-27T01:01:38;2.57;;;1.70;;
20065;SDS011;10193;48.884;9.182;2024-01-27T01:04:06;1.67;;;1.57;;
20065;SDS011;10193;48.884;9.182;2024-01-27T01:06:33;2.30;;;1.80;;
20065;SDS011;10193;48.884;9.182;2024-01-27T01:09:00;1.87;;;1.63;;
20065;SDS011;10193;48.884;9.182;2024-01-27T01:11:27;1.88;;;1.70;;
20065;SDS011;10193;48.884;9.182;2024-01-27T01:13:55;3.43;;;1.67;;
20065;SDS011;10193;48.884;9.182;2024-01-27T01:16:22;1.93;;;1.73;;
20065;SDS011;10193;48.884;9.182;2024-01-27T01:18:48;1.80;;;1.48;;
20065;SDS011;10193;48.884;9.182;2024-01-27T01:21:15;2.57;;;1.60;;
20065;SDS011;10193;48.884;9.182;2024-01-27T01:23:42;2.67;;;1.90;;
20065;SDS011;10193;48.884;9.182;2024-01-27T01:26:08;2.70;;;1.67;;
20065;SDS011;10193;48.884;9.182;2024-01-27T01:28:35;1.90;;;1.52;;
20065;SDS011;10193;48.884;9.182;2024-01-27T01:31:05;1.80;;;1.70;;
20065;SDS011;10193;48.884;9.182;2024-01-27T01:33:32;1.87;;;1.77;;
20065;SDS011;10193;48.884;9.182;2024-01-27T01:35:59;2.50;;;1.70;;
20065;SDS011;10193;48.884;9.182;2024-01-27T01:38:26;1.67;;;1.57;;
20065;SDS011;10193;48.884;9.182;2024-01-27T01:40:52;3.80;;;2.10;;
20065;SDS011;10193;48.884;9.182;2024-01-27T01:43:19;2.03;;;1.87;;
20065;SDS011;10193;48.884;9.182;2024-01-27T01:45:46;2.47;;;1.70;;
20065;SDS011;10193;48.884;9.182;2024-01-27T01:48:14;1.77;;;1.60;;
20065;SDS011;10193;48.884;9.182;2024-01-27T01:50:40;2.10;;;1.50;;
20065;SDS011;10193;48.884;9.182;2024-01-27T01:53:08;2.97;;;1.80;;
20065;SDS011;10193;48.884;9.182;2024-01-27T01:55:35;1.93;;;1.80;;
20065;SDS011;10193;48.884;9.182;2024-01-27T01:58:02;2.37;;;1.70;;
20065;SDS011;10193;48.884;9.182;2024-01-27T02:00:29;2.03;;;1.50;;
20065;SDS011;10193;48.884;9.182;2024-01-27T02:02:56;1.93;;;1.53;;
20065;SDS011;10193;48.884;9.182;2024-01-27T02:05:24;2.03;;;1.67;;
20065;SDS011;10193;48.884;9.182;2024-01-27T02:07:51;1.93;;;1.67;;
20065;SDS011;10193;48.884;9.182;2024-01-27T02:10:21;2.93;;;1.93;;
20065;SDS011;10193;48.884;9.182;2024-01-27T02:12:48;2.43;;;1.70;;
20065;SDS011;10193;48.884;9.182;2024-01-27T02:15:14;1.87;;;1.70;;
20065;SDS011;10193;48.884;9.182;2024-01-27T02:17:41;1.93;;;1.80;;
20065;SDS011;10193;48.884;9.182;2024-01-27T02:20:08;2.07;;;1.80;;
20065;SDS011;10193;48.884;9.182;2024-01-27T02:22:37;2.87;;;2.10;;
20065;SDS011;10193;48.884;9.182;2024-01-27T02:25:05;2.33;;;1.77;;
20065;SDS011;10193;48.884;9.182;2024-01-27T02:27:32;2.67;;;1.70;;
20065;SDS011;10193;48.884;9.182;2024-01-27T02:29:58;1.67;;;1.53;;
20065;SDS011;10193;48.884;9.182;2024-01-27T02:32:25;2.47;;;1.53;;
20065;SDS011;10193;48.884;9.182;2024-01-27T02:34:52;3.37;;;1.60;;
20065;SDS011;10193;48.884;9.182;2024-01-27T02:37:18;2.40;;;1.70;;
20065;SDS011;10193;48.884;9.182;2024-01-27T02:39:45;1.53;;;1.43;;
20065;SDS011;10193;48.884;9.182;2024-01-27T02:42:13;2.13;;;1.70;;
20065;SDS011;10193;48.884;9.182;2024-01-27T02:44:40;2.13;;;1.67;;
20065;SDS011;10193;48.884;9.182;2024-01-27T02:47:06;2.40;;;1.90;;
20065;SDS011;10193;48.884;9.182;2024-01-27T02:49:33;1.53;;;1.43;;
20065;SDS011;10193;48.884;9.182;2024-01-27T02:52:00;2.17;;;1.80;;
20065;SDS011;10193;48.884;9.182;2024-01-27T02:54:26;2.70;;;1.77;;
20065;SDS011;10193;48.884;9.182;2024-01-27T02:56:53;3.40;;;1.90;;
20065;SDS011;10193;48.884;9.182;2024-01-27T02:59:21;2.07;;;1.60;;
20065;SDS011;10193;48.884;9.182;2024-01-27T03:01:47;2.00;;;1.80;;
20065;SDS011;10193;48.884;9.182;2024-01-27T03:04:14;1.90;;;1.80;;
20065;SDS011;10193;48.884;9.182;2024-01-27T03:06:41;2.23;;;1.80;;
20065;SDS011;10193;48.884;9.182;2024-01-27T03:09:08;1.73;;;1.63;;
20065;SDS011;10193;48.884;9.182;2024-01-27T03:11:35;3.50;;;1.80;;
20065;SDS011;10193;48.884;9.182;2024-01-27T03:14:02;1.70;;;1.60;;
20065;SDS011;10193;48.884;9.182;2024-01-27T03:16:30;1.83;;;1.73;;
20065;SDS011;10193;48.884;9.182;2024-01-27T03:18:57;2.80;;;1.80;;
20065;SDS011;10193;48.884;9.182;2024-01-27T03:21:24;2.00;;;1.63;;
20065;SDS011;10193;48.884;9.182;2024-01-27T03:23:51;2.50;;;1.70;;
20065;SDS011;10193;48.884;9.182;2024-01-27T03:26:17;3.47;;;1.67;;
20065;SDS011;10193;48.884;9.182;2024-01-27T03:28:44;2.87;;;1.93;;
20065;SDS011;10193;48.884;9.182;2024-01-27T03:31:11;2.23;;;1.67;;
20065;SDS011;10193;48.884;9.182;2024-01-27T03:33:39;3.57;;;1.80;;
20065;SDS011;10193;48.884;9.182;2024-01-27T03:36:08;2.53;;;1.90;;
20065;SDS011;10193;48.884;9.182;2024-01-27T03:38:36;4.27;;;1.90;;
20065;SDS011;10193;48.884;9.182;2024-01-27T03:41:03;2.73;;;1.70;;
20065;SDS011;10193;48.884;9.182;2024-01-27T03:43:30;3.93;;;1.80;;
20065;SDS011;10193;48.884;9.182;2024-01-27T03:45:57;4.07;;;1.90;;
20065;SDS011;10193;48.884;9.182;2024-01-27T03:48:24;2.67;;;1.80;;
20065;SDS011;10193;48.884;9.182;2024-01-27T03:50:52;2.23;;;1.73;;
20065;SDS011;10193;48.884;9.182;2024-01-27T03:53:18;2.63;;;1.70;;
20065;SDS011;10193;48.884;9.182;2024-01-27T03:55:45;2.57;;;1.90;;
20065;SDS011;10193;48.884;9.182;2024-01-27T03:58:12;2.10;;;1.90;;
20065;SDS011;10193;48.884;9.182;2024-01-27T04:00:38;3.23;;;1.70;;
20065;SDS011;10193;48.884;9.182;2024-01-27T04:03:05;2.67;;;1.80;;
20065;SDS011;10193;48.884;9.182;2024-01-27T04:05:34;2.13;;;1.60;;
20065;SDS011;10193;48.884;9.182;2024-01-27T04:08:04;2.53;;;2.10;;
20065;SDS011;10193;48.884;9.182;2024-01-27T04:10:31;3.03;;;2.10;;
20065;SDS011;10193;48.884;9.182;2024-01-27T04:12:58;3.67;;;2.10;;
20065;SDS011;10193;48.884;9.182;2024-01-27T04:15:24;1.80;;;1.70;;
20065;SDS011;10193;48.884;9.182;2024-01-27T04:17:51;2.23;;;1.80;;
20065;SDS011;10193;48.884;9.182;2024-01-27T04:20:19;2.23;;;1.90;;
20065;SDS011;10193;48.884;9.182;2024-01-27T04:22:46;3.03;;;1.97;;
20065;SDS011;10193;48.884;9.182;2024-01-27T04:25:14;3.37;;;1.80;;
20065;SDS011;10193;48.884;9.182;2024-01-27T04:27:41;2.60;;;1.70;;
20065;SDS011;10193;48.884;9.182;2024-01-27T04:30:08;2.93;;;2.00;;
20065;SDS011;10193;48.884;9.182;2024-01-27T04:32:36;4.03;;;2.20;;
20065;SDS011;10193;48.884;9.182;2024-01-27T04:35:03;2.87;;;1.77;;
20065;SDS011;10193;48.884;9.182;2024-01-27T04:37:31;2.07;;;1.80;;
20065;SDS011;10193;48.884;9.182;2024-01-27T04:39:57;2.73;;;1.77;;
20065;SDS011;10193;48.884;9.182;2024-01-27T04:42:25;2.83;;;2.00;;
20065;SDS011;10193;48.884;9.182;2024-01-27T04:44:52;2.13;;;1.70;;
20065;SDS011;10193;48.884;9.182;2024-01-27T04:47:19;2.13;;;1.80;;
20065;SDS011;10193;48.884;9.182;2024-01-27T04:49:46;2.47;;;1.60;;
20065;SDS011;10193;48.884;9.182;2024-01-27T04:52:12;4.30;;;1.93;;
20065;SDS011;10193;48.884;9.182;2024-01-27T04:54:39;4.17;;;1.67;;
20065;SDS011;10193;48.884;9.182;2024-01-27T04:57:05;3.13;;;2.00;;
20065;SDS011;10193;48.884;9.182;2024-01-27T04:59:33;2.90;;;2.10;;
20065;SDS011;10193;48.884;9.182;2024-01-27T05:02:00;2.77;;;2.00;;
20065;SDS011;10193;48.884;9.182;2024-01-27T05:04:27;2.13;;;1.57;;
20065;SDS011;10193;48.884;9.182;2024-01-27T05:06:53;2.10;;;1.90;;
20065;SDS011;10193;48.884;9.182;2024-01-27T05:09:20;2.73;;;2.03;;
20065;SDS011;10193;48.884;9.182;2024-01-27T05:11:46;2.90;;;1.97;;
20065;SDS011;10193;48.884;9.182;2024-01-27T05:14:16;2.93;;;1.90;;
20065;SDS011;10193;48.884;9.182;2024-01-27T05:16:44;3.87;;;1.80;;
20065;SDS011;10193;48.884;9.182;2024-01-27T05:19:11;2.33;;;1.63;;
20065;SDS011;10193;48.884;9.182;2024-01-27T05:21:38;1.93;;;1.70;;
20065;SDS011;10193;48.884;9.182;2024-01-27T05:24:04;4.13;;;1.73;;
20065;SDS011;10193;48.884;9.182;2024-01-27T05:26:31;2.67;;;1.87;;
20065;SDS011;10193;48.884;9.182;2024-01-27T05:28:58;2.67;;;1.90;;
20065;SDS011;10193;48.884;9.182;2024-01-27T05:31:25;2.93;;;1.60;;
20065;SDS011;10193;48.884;9.182;2024-01-27T05:33:53;2.07;;;1.43;;
20065;SDS011;10193;48.884;9.182;2024-01-27T05:36:20;3.37;;;1.90;;
20065;SDS011;10193;48.884;9.182;2024-01-27T05:38:46;1.90;;;1.60;;
20065;SDS011;10193;48.884;9.182;2024-01-27T05:41:13;1.93;;;1.50;;
20065;SDS011;10193;48.884;9.182;2024-01-27T05:43:40;3.60;;;1.80;;
20065;SDS011;10193;48.884;9.182;2024-01-27T05:46:08;1.60;;;1.50;;
20065;SDS011;10193;48.884;9.182;2024-01-27T05:48:35;1.83;;;1.50;;
20065;SDS011;10193;48.884;9.182;2024-01-27T05:51:03;1.67;;;1.57;;
20065;SDS011;10193;48.884;9.182;2024-01-27T05:53:30;2.20;;;1.57;;
20065;SDS011;10193;48.884;9.182;2024-01-27T05:55:56;2.17;;;1.47;;
20065;SDS011;10193;48.884;9.182;2024-01-27T05:58:23;2.47;;;1.70;;
20065;SDS011;10193;48.884;9.182;2024-01-27T06:00:50;2.23;;;1.83;;
20065;SDS011;10193;48.884;9.182;2024-01-27T06:03:16;2.30;;;1.70;;
20065;SDS011;10193;48.884;9.182;2024-01-27T06:05:43;2.63;;;1.60;;
20065;SDS011;10193;48.884;9.182;2024-01-27T06:08:11;2.90;;;1.70;;
20065;SDS011;10193;48.884;9.182;2024-01-27T06:10:38;2.67;;;1.83;;
20065;SDS011;10193;48.884;9.182;2024-01-27T06:13:05;2.43;;;1.93;;
20065;SDS011;10193;48.884;9.182;2024-01-27T06:15:32;2.37;;;2.03;;
20065;SDS011;10193;48.884;9.182;2024-01-27T06:17:59;2.30;;;1.87;;
20065;SDS011;10193;48.884;9.182;2024-01-27T06:20:26;2.47;;;1.97;;
20065;SDS011;10193;48.884;9.182;2024-01-27T06:22:52;3.13;;;2.50;;
20065;SDS011;10193;48.884;9.182;2024-01-27T06:25:20;4.03;;;2.00;;
20065;SDS011;10193;48.884;9.182;2024-01-27T06:27:47;2.60;;;2.37;;
20065;SDS011;10193;48.884;9.182;2024-01-27T06:30:14;3.77;;;2.60;;
20065;SDS011;10193;48.884;9.182;2024-01-27T06:32:41;2.90;;;2.57;;
20065;SDS011;10193;48.884;9.182;2024-01-27T06:35:08;2.60;;;2.40;;
20065;SDS011;10193;48.884;9.182;2024-01-27T06:37:35;3.50;;;2.40;;
20065;SDS011;10193;48.884;9.182;2024-01-27T06:40:02;3.00;;;2.40;;
20065;SDS011;10193;48.884;9.182;2024-01-27T06:42:31;2.60;;;2.40;;
20065;SDS011;10193;48.884;9.182;2024-01-27T06:44:57;2.83;;;2.60;;
20065;SDS011;10193;48.884;9.182;2024-01-27T06:47:24;3.97;;;2.67;;
20065;SDS011;10193;48.884;9.182;2024-01-27T06:49:51;3.93;;;3.00;;
20065;SDS011;10193;48.884;9.182;2024-01-27T06:52:17;3.07;;;2.70;;
20065;SDS011;10193;48.884;9.182;2024-01-27T06:54:44;3.80;;;2.80;;
20065;SDS011;10193;48.884;9.182;2024-01-27T06:57:17;3.00;;;2.70;;
20065;SDS011;10193;48.884;9.182;2024-01-27T06:59:46;3.70;;;2.70;;
20065;SDS011;10193;48.884;9.182;2024-01-27T07:02:17;3.37;;;2.70;;
20065;SDS011;10193;48.884;9.182;2024-01-27T07:04:44;4.73;;;3.10;;
20065;SDS011;10193;48.884;9.182;2024-01-27T07:07:11;3.27;;;2.60;;
20065;SDS011;10193;48.884;9.182;2024-01-27T07:09:38;2.70;;;2.50;;
20065;SDS011;10193;48.884;9.182;2024-01-27T07:12:05;3.43;;;2.60;;
20065;SDS011;10193;48.884;9.182;2024-01-27T07:14:34;3.93;;;2.77;;
20065;SDS011;10193;48.884;9.182;2024-01-27T07:17:02;3.87;;;2.80;;
20065;SDS011;10193;48.884;9.182;2024-01-27T07:19:29;3.50;;;3.20;;
20065;SDS011;10193;48.884;9.182;2024-01-27T07:21:56;3.87;;;3.30;;
20065;SDS011;10193;48.884;9.182;2024-01-27T07:24:22;3.83;;;2.90;;
20065;SDS011;10193;48.884;9.182;2024-01-27T07:26:49;3.93;;;2.93;;
20065;SDS011;10193;48.884;9.182;2024-01-27T07:29:16;3.00;;;2.70;;
20065;SDS011;10193;48.884;9.182;2024-01-27T07:31:42;3.50;;;2.67;;
20065;SDS011;10193;48.884;9.182;2024-01-27T07:34:10;3.27;;;2.57;;
20065;SDS011;10193;48.884;9.182;2024-01-27T07:36:37;3.47;;;3.17;;
20065;SDS011;10193;48.884;9.182;2024-01-27T07:39:04;4.23;;;3.40;;
20065;SDS011;10193;48.884;9.182;2024-01-27T07:41:31;3.90;;;3.20;;
20065;SDS011;10193;48.884;9.182;2024-01-27T07:44:06;3.77;;;3.20;;
20065;SDS011;10193;48.884;9.182;2024-01-27T07:46:33;4.13;;;3.00;;
20065;SDS011;10193;48.884;9.182;2024-01-27T07:48:59;3.27;;;2.80;;
20065;SDS011;10193;48.884;9.182;2024-01-27T07:51:29;3.30;;;3.00;;
20065;SDS011;10193;48.884;9.182;2024-01-27T07:53:55;4.10;;;3.20;;
20065;SDS011;10193;48.884;9.182;2024-01-27T07:56:22;3.60;;;3.00;;
20065;SDS011;10193;48.884;9.182;2024-01-27T07:58:49;3.73;;;3.00;;
20065;SDS011;10193;48.884;9.182;2024-01-27T08:01:15;3.23;;;2.93;;
20065;SDS011;10193;48.884;9.182;2024-01-27T08:03:42;4.17;;;3.20;;
20065;SDS011;10193;48.884;9.182;2024-01-27T08:06:13;3.27;;;2.97;;
20065;SDS011;10193;48.884;9.182;2024-01-27T08:08:43;2.90;;;2.70;;
20065;SDS011;10193;48.884;9.182;2024-01-27T08:11:10;3.50;;;3.20;;
20065;SDS011;10193;48.884;9.182;2024-01-27T08:13:37;5.57;;;3.00;;
20065;SDS011;10193;48.884;9.182;2024-01-27T08:16:04;3.40;;;3.10;;
20065;SDS011;10193;48.884;9.182;2024-01-27T08:18:31;3.97;;;3.17;;
20065;SDS011;10193;48.884;9.182;2024-01-27T08:20:57;4.20;;;3.70;;
20065;SDS011;10193;48.884;9.182;2024-01-27T08:23:24;4.00;;;3.60;;
20065;SDS011;10193;48.884;9.182;2024-01-27T08:25:52;4.53;;;3.90;;
20065;SDS011;10193;48.884;9.182;2024-01-27T08:28:19;4.97;;;3.50;;
20065;SDS011;10193;48.884;9.182;2024-01-27T08:30:45;5.03;;;4.53;;
20065;SDS011;10193;48.884;9.182;2024-01-27T08:33:12;5.53;;;3.73;;
20065;SDS011;10193;48.884;9.182;2024-01-27T08:35:39;5.03;;;3.90;;
20065;SDS011;10193;48.884;9.182;2024-01-27T08:38:05;4.03;;;3.30;;
20065;SDS011;10193;48.884;9.182;2024-01-27T08:40:34;4.20;;;3.50;;
20065;SDS011;10193;48.884;9.182;2024-01-27T08:43:03;4.33;;;3.13;;
20065;SDS011;10193;48.884;9.182;2024-01-27T08:45:30;4.50;;;3.30;;
20065;SDS011;10193;48.884;9.182;2024-01-27T08:47:57;4.50;;;3.63;;
20065;SDS011;10193;48.884;9.182;2024-01-27T08:50:24;4.57;;;3.93;;
20065;SDS011;10193;48.884;9.182;2024-01-27T08:52:51;3.60;;;3.30;;
20065;SDS011;10193;48.884;9.182;2024-01-27T08:55:17;5.17;;;3.23;;
20065;SDS011;10193;48.884;9.182;2024-01-27T08:57:44;3.60;;;3.30;;
20065;SDS011;10193;48.884;9.182;2024-01-27T09:00:13;3.80;;;3.40;;
20065;SDS011;10193;48.884;9.182;2024-01-27T09:02:41;4.37;;;3.60;;
20065;SDS011;10193;48.884;9.182;2024-01-27T09:05:08;5.07;;;3.60;;
20065;SDS011;10193;48.884;9.182;2024-01-27T09:07:35;3.83;;;3.50;;
20065;SDS011;10193;48.884;9.182;2024-01-27T09:10:02;3.80;;;3.47;;
20065;SDS011;10193;48.884;9.182;2024-01-27T09:12:29;4.23;;;3.77;;
20065;SDS011;10193;48.884;9.182;2024-01-27T09:14:56;4.57;;;3.40;;
20065;SDS011;10193;48.884;9.182;2024-01-27T09:17:24;4.17;;;3.60;;
20065;SDS011;10193;48.884;9.182;2024-01-27T09:19:51;4.63;;;3.73;;
20065;SDS011;10193;48.884;9.182;2024-01-27T09:22:17;3.97;;;3.30;;
20065;SDS011;10193;48.884;9.182;2024-01-27T09:24:44;6.17;;;3.60;;
20065;SDS011;10193;48.884;9.182;2024-01-27T09:27:11;5.63;;;3.57;;
20065;SDS011;10193;48.884;9.182;2024-01-27T09:29:38;5.30;;;3.80;;
20065;SDS011;10193;48.884;9.182;2024-01-27T09:32:05;6.27;;;3.73;;
20065;SDS011;10193;48.884;9.182;2024-01-27T09:34:33;6.10;;;3.83;;
20065;SDS011;10193;48.884;9.182;2024-01-27T09:37:00;4.13;;;3.60;;
20065;SDS011;10193;48.884;9.182;2024-01-27T09:39:27;6.93;;;3.40;;
20065;SDS011;10193;48.884;9.182;2024-01-27T09:41:54;5.23;;;3.30;;
20065;SDS011;10193;48.884;9.182;2024-01-27T09:44:20;4.20;;;3.60;;
20065;SDS011;10193;48.884;9.182;2024-01-27T09:46:47;5.45;;;3.60;;
20065;SDS011;10193;48.884;9.182;2024-01-27T09:49:14;4.80;;;3.40;;
20065;SDS011;10193;48.884;9.182;2024-01-27T09:51:42;5.37;;;3.70;;
20065;SDS011;10193;48.884;9.182;2024-01-27T09:54:09;4.53;;;3.58;;
20065;SDS011;10193;48.884;9.182;2024-01-27T09:56:36;5.03;;;3.72;;
20065;SDS011;10193;48.884;9.182;2024-01-27T09:59:04;3.97;;;3.60;;
20065;SDS011;10193;48.884;9.182;2024-01-27T10:01:31;5.67;;;3.73;;
20065;SDS011;10193;48.884;9.182;2024-01-27T10:04:00;3.77;;;3.33;;
20065;SDS011;10193;48.884;9.182;2024-01-27T10:06:27;4.30;;;3.70;;
20065;SDS011;10193;48.884;9.182;2024-01-27T10:08:55;4.90;;;3.70;;
20065;SDS011;10193;48.884;9.182;2024-01-27T10:11:23;5.90;;;3.67;;
20065;SDS011;10193;48.884;9.182;2024-01-27T10:13:56;5.55;;;4.25;;
20065;SDS011;10193;48.884;9.182;2024-01-27T10:16:25;6.40;;;3.70;;
20065;SDS011;10193;48.884;9.182;2024-01-27T10:18:58;4.30;;;3.60;;
20065;SDS011;10193;48.884;9.182;2024-01-27T10:21:26;4.57;;;3.40;;
20065;SDS011;10193;48.884;9.182;2024-01-27T10:23:52;5.22;;;3.60;;
20065;SDS011;10193;48.884;9.182;2024-01-27T10:26:20;5.50;;;3.37;;
20065;SDS011;10193;48.884;9.182;2024-01-27T10:28:52;4.70;;;3.25;;
20065;SDS011;10193;48.884;9.182;2024-01-27T10:31:19;4.35;;;3.13;;
20065;SDS011;10193;48.884;9.182;2024-01-27T10:33:51;5.73;;;3.73;;
20065;SDS011;10193;48.884;9.182;2024-01-27T10:36:18;6.13;;;3.97;;
20065;SDS011;10193;48.884;9.182;2024-01-27T10:38:45;4.57;;;3.40;;
20065;SDS011;10193;48.884;9.182;2024-01-27T10:41:12;6.23;;;3.47;;
20065;SDS011;10193;48.884;9.182;2024-01-27T10:43:49;7.50;;;3.97;;
20065;SDS011;10193;48.884;9.182;2024-01-27T10:46:16;5.03;;;3.67;;
20065;SDS011;10193;48.884;9.182;2024-01-27T10:48:46;6.23;;;3.50;;
20065;SDS011;10193;48.884;9.182;2024-01-27T10:51:18;4.77;;;3.53;;
20065;SDS011;10193;48.884;9.182;2024-01-27T10:53:49;4.73;;;3.53;;
20065;SDS011;10193;48.884;9.182;2024-01-27T10:56:17;4.03;;;3.28;;
20065;SDS011;10193;48.884;9.182;2024-01-27T10:58:46;4.45;;;3.50;;
20065;SDS011;10193;48.884;9.182;2024-01-27T11:01:15;5.43;;;4.07;;
20065;SDS011;10193;48.884;9.182;2024-01-27T11:03:44;4.80;;;4.00;;
20065;SDS011;10193;48.884;9.182;2024-01-27T11:06:12;8.70;;;3.50;;
20065;SDS011;10193;48.884;9.182;2024-01-27T11:08:40;6.33;;;4.30;;
20065;SDS011;10193;48.884;9.182;2024-01-27T11:11:07;6.90;;;3.42;;
20065;SDS011;10193;48.884;9.182;2024-01-27T11:13:34;4.72;;;3.40;;
20065;SDS011;10193;48.884;9.182;2024-01-27T11:16:04;5.00;;;3.55;;
20065;SDS011;10193;48.884;9.182;2024-01-27T11:18:31;5.03;;;3.67;;
20065;SDS011;10193;48.884;9.182;2024-01-27T11:20:58;6.75;;;3.75;;
20065;SDS011;10193;48.884;9.182;2024-01-27T11:23:31;4.68;;;3.47;;
20065;SDS011;10193;48.884;9.182;2024-01-27T11:26:02;5.28;;;4.13;;
20065;SDS011;10193;48.884;9.182;2024-01-27T11:28:29;4.40;;;4.00;;
20065;SDS011;10193;48.884;9.182;2024-01-27T11:30:56;6.85;;;4.38;;
20065;SDS011;10193;48.884;9.182;2024-01-27T11:33:25;5.80;;;4.03;;
20065;SDS011;10193;48.884;9.182;2024-01-27T11:35:59;5.60;;;4.38;;
20065;SDS011;10193;48.884;9.182;2024-01-27T11:38:27;5.20;;;4.00;;
20065;SDS011;10193;48.884;9.182;2024-01-27T11:40:53;4.47;;;4.00;;
20065;SDS011;10193;48.884;9.182;2024-01-27T11:43:20;4.78;;;3.50;;
20065;SDS011;10193;48.884;9.182;2024-01-27T11:45:54;4.47;;;3.30;;
20065;SDS011;10193;48.884;9.182;2024-01-27T11:48:21;7.32;;;3.50;;
20065;SDS011;10193;48.884;9.182;2024-01-27T11:50:50;5.30;;;3.42;;
20065;SDS011;10193;48.884;9.182;2024-01-27T11:53:29;4.88;;;3.10;;
20065;SDS011;10193;48.884;9.182;2024-01-27T11:55:56;3.97;;;2.90;;
20065;SDS011;10193;48.884;9.182;2024-01-27T11:58:24;4.20;;;3.15;;
20065;SDS011;10193;48.884;9.182;2024-01-27T12:00:50;5.55;;;3.20;;
20065;SDS011;10193;48.884;9.182;2024-01-27T12:03:18;7.25;;;3.30;;
20065;SDS011;10193;48.884;9.182;2024-01-27T12:05:44;3.88;;;2.95;;
20065;SDS011;10193;48.884;9.182;2024-01-27T12:08:13;5.30;;;3.25;;
20065;SDS011;10193;48.884;9.182;2024-01-27T12:10:40;4.80;;;3.13;;
20065;SDS011;10193;48.884;9.182;2024-01-27T12:13:06;4.05;;;3.40;;
20065;SDS011;10193;48.884;9.182;2024-01-27T12:15:33;5.13;;;3.60;;
20065;SDS011;10193;48.884;9.182;2024-01-27T12:18:01;4.38;;;3.50;;
20065;SDS011;10193;48.884;9.182;2024-01-27T12:20:30;4.30;;;3.50;;
20065;SDS011;10193;48.884;9.182;2024-01-27T12:23:01;4.47;;;3.45;;
20065;SDS011;10193;48.884;9.182;2024-01-27T12:25:30;5.32;;;3.50;;
20065;SDS011;10193;48.884;9.182;2024-01-27T12:27:56;6.97;;;4.47;;
20065;SDS011;10193;48.884;9.182;2024-01-27T12:30:26;6.50;;;3.88;;
20065;SDS011;10193;48.884;9.182;2024-01-27T12:32:52;4.30;;;3.42;;
20065;SDS011;10193;48.884;9.182;2024-01-27T12:35:19;4.75;;;3.80;;
20065;SDS011;10193;48.884;9.182;2024-01-27T12:37:46;4.35;;;3.60;;
20065;SDS011;10193;48.884;9.182;2024-01-27T12:40:19;6.57;;;3.55;;
20065;SDS011;10193;48.884;9.182;2024-01-27T12:42:48;3.88;;;3.35;;
20065;SDS011;10193;48.884;9.182;2024-01-27T12:45:15;5.72;;;3.42;;
20065;SDS011;10193;48.884;9.182;2024-01-27T12:47:41;5.63;;;3.47;;
20065;SDS011;10193;48.884;9.182;2024-01-27T12:50:08;4.25;;;3.50;;
20065;SDS011;10193;48.884;9.182;2024-01-27T12:52:36;4.95;;;3.45;;
20065;SDS011;10193;48.884;9.182;2024-01-27T12:55:03;4.50;;;3.20;;
20065;SDS011;10193;48.884;9.182;2024-01-27T12:57:30;4.65;;;3.17;;
20065;SDS011;10193;48.884;9.182;2024-01-27T12:59:58;3.90;;;3.50;;
20065;SDS011;10193;48.884;9.182;2024-01-27T13:02:25;4.22;;;3.47;;
20065;SDS011;10193;48.884;9.182;2024-01-27T13:04:51;5.25;;;3.45;;
20065;SDS011;10193;48.884;9.182;2024-01-27T13:07:18;4.60;;;3.40;;
20065;SDS011;10193;48.884;9.182;2024-01-27T13:09:45;3.67;;;3.10;;
20065;SDS011;10193;48.884;9.182;2024-01-27T13:12:12;5.22;;;3.22;;
20065;SDS011;10193;48.884;9.182;2024-01-27T13:14:38;5.15;;;3.22;;
20065;SDS011;10193;48.884;9.182;2024-01-27T13:17:06;4.18;;;3.50;;
20065;SDS011;10193;48.884;9.182;2024-01-27T13:19:33;4.28;;;3.60;;
20065;SDS011;10193;48.884;9.182;2024-01-27T13:22:00;4.38;;;3.25;;
20065;SDS011;10193;48.884;9.182;2024-01-27T13:24:27;4.57;;;3.60;;
20065;SDS011;10193;48.884;9.182;2024-01-27T13:26:54;4.20;;;3.80;;
20065;SDS011;10193;48.884;9.182;2024-01-27T13:29:21;4.00;;;3.35;;
20065;SDS011;10193;48.884;9.182;2024-01-27T13:31:48;5.25;;;3.10;;
20065;SDS011;10193;48.884;9.182;2024-01-27T13:34:16;4.35;;;2.95;;
20065;SDS011;10193;48.884;9.182;2024-01-27T13:36:43;3.47;;;2.53;;
20065;SDS011;10193;48.884;9.182;2024-01-27T13:39:10;2.92;;;2.70;;
20065;SDS011;10193;48.884;9.182;2024-01-27T13:41:37;3.35;;;2.80;;
20065;SDS011;10193;48.884;9.182;2024-01-27T13:44:03;3.38;;;2.70;;
20065;SDS011;10193;48.884;9.182;2024-01-27T13:46:30;4.00;;;2.40;;
20065;SDS011;10193;48.884;9.182;2024-01-27T13:48:57;4.03;;;2.70;;
20065;SDS011;10193;48.884;9.182;2024-01-27T13:51:25;3.53;;;2.83;;
20065;SDS011;10193;48.884;9.182;2024-01-27T13:53:52;3.75;;;2.60;;
20065;SDS011;10193;48.884;9.182;2024-01-27T13:56:19;3.65;;;2.30;;
20065;SDS011;10193;48.884;9.182;2024-01-27T13:58:45;3.90;;;2.40;;
20065;SDS011;10193;48.884;9.182;2024-01-27T14:01:12;3.30;;;2.45;;
20065;SDS011;10193;48.884;9.182;2024-01-27T14:03:39;4.25;;;2.17;;
20065;SDS011;10193;48.884;9.182;2024-01-27T14:06:06;2.70;;;2.10;;
20065;SDS011;10193;48.884;9.182;2024-01-27T14:08:38;2.45;;;2.20;;
20065;SDS011;10193;48.884;9.182;2024-01-27T14:11:05;2.80;;;2.30;;
20065;SDS011;10193;48.884;9.182;2024-01-27T14:13:32;2.72;;;2.20;;
20065;SDS011;10193;48.884;9.182;2024-01-27T14:15:58;3.42;;;2.25;;
20065;SDS011;10193;48.884;9.182;2024-01-27T14:18:25;4.70;;;2.30;;
20065;SDS011;10193;48.884;9.182;2024-01-27T14:20:53;2.58;;;2.00;;
20065;SDS011;10193;48.884;9.182;2024-01-27T14:23:20;2.10;;;1.90;;
20065;SDS011;10193;48.884;9.182;2024-01-27T14:25:48;2.03;;;1.83;;
20065;SDS011;10193;48.884;9.182;2024-01-27T14:28:15;3.10;;;2.20;;
20065;SDS011;10193;48.884;9.182;2024-01-27T14:30:42;4.05;;;2.28;;
20065;SDS011;10193;48.884;9.182;2024-01-27T14:33:09;2.35;;;2.10;;
20065;SDS011;10193;48.884;9.182;2024-01-27T14:35:36;4.35;;;2.40;;
20065;SDS011;10193;48.884;9.182;2024-01-27T14:38:02;3.78;;;2.30;;
20065;SDS011;10193;48.884;9.182;2024-01-27T14:40:29;3.30;;;2.30;;
20065;SDS011;10193;48.884;9.182;2024-01-27T14:42:58;3.95;;;2.05;;
20065;SDS011;10193;48.884;9.182;2024-01-27T14:45:25;2.60;;;2.08;;
20065;SDS011;10193;48.884;9.182;2024-01-27T14:47:52;3.85;;;2.58;;